TAF and METAR

METAR for Odessa International Airport

UKOO 192100Z 00000MPS 6000 FEW013 BKN021 13/12 Q1021 R34/090060 NOSIG
Report created 19. okt 23:00
wind 0 knots from N (000°) visibility 6000 meters some clouds (~25% cover) at 1300 feet broken clouds (~75% cover) at 2100 feet Temperature 13° with dewpoint at 12° (Humidity 93.65%) Pressure 1021 hPa less than 1mm of clear and dry is covering 51% - 100% of runway 34 and friction coefficient is 0.6

TAF for Odessa International Airport

TAF UKOO 191706Z 1918/2018 16003MPS 2100 BR SCT003 BKN007 PROB40 TEMPO 1918/2006 0300 FG VV002 BECMG 2006/2007 6000 NSW
Report created 19. okt 19:06

between 19. okt 20:00 - 20. okt 20:00

wind 6 knots from SSE (160°) visibility 2100 meters mist scattered clouds (~50% cover) at 300 feet broken clouds (~75% cover) at 700 feet

probably (~40%) temporarily between 19. okt 20:00 - 20. okt 08:00

visibility 300 meters fog vertical visibility 200 feet

becoming between 20. okt 08:00 - 20. okt 09:00

visibility 6000 meters
Odessa International Airport in Ukraine at 35m

Latest 5 airports